Time;durP1;ratioP1;P1;durP2;ratioP2;P2;SDS_P1;SDS_P2;PMS_P1;PMS_P2;Temp;Humidity;BMP_temperature;BMP_pressure;BME280_temperature;BME280_humidity;BME280_pressure;Samples;Min_cycle;Max_cycle;Signal;HPM_P1;HPM_P2
2021/09/30 00:00:09;;;;;;;13.32;7.40;;;29.30;89.40;;;;;;5107337;28;20052;-45
2021/09/30 00:02:36;;;;;;;14.05;7.55;;;29.30;89.40;;;;;;5107406;28;20024;-46
2021/09/30 00:05:04;;;;;;;11.85;6.95;;;29.30;89.70;;;;;;5107481;28;20043;-47
2021/09/30 00:07:31;;;;;;;11.50;6.65;;;29.30;89.50;;;;;;5107233;28;20020;-47
2021/09/30 00:09:58;;;;;;;15.70;8.32;;;29.30;89.50;;;;;;5107611;28;20095;-49
2021/09/30 00:12:32;;;;;;;21.35;10.13;;;29.30;89.50;;;;;;5107044;28;20042;-52
2021/09/30 00:15:07;;;;;;;18.08;9.68;;;29.30;89.50;;;;;;5107647;28;20024;-51
2021/09/30 00:33:48;;;;;;;19.67;10.88;;;29.20;89.80;;;;;;5106585;28;20027;-51
2021/09/30 00:47:49;;;;;;;21.15;10.57;;;29.20;90.00;;;;;;5106649;28;20034;-48
2021/09/30 00:55:23;;;;;;;29.67;15.50;;;29.20;90.10;;;;;;5106728;28;20024;-43
2021/09/30 01:46:23;;;;;;;28.70;8.52;;;29.00;89.80;;;;;;5105953;28;20031;-47
2021/09/30 02:27:38;;;;;;;10.13;5.35;;;28.80;89.90;;;;;;5104563;28;20408;-45
2021/09/30 03:00:36;;;;;;;8.38;4.70;;;28.70;89.50;;;;;;5104027;28;20071;-42
2021/09/30 03:03:04;;;;;;;10.07;5.18;;;28.70;89.50;;;;;;5103955;28;20030;-42
2021/09/30 03:05:33;;;;;;;11.70;5.22;;;28.70;89.50;;;;;;5103943;28;20027;-44
2021/09/30 03:08:00;;;;;;;9.20;5.00;;;28.70;89.50;;;;;;5103963;28;20034;-43
2021/09/30 03:10:28;;;;;;;11.95;4.90;;;28.70;89.50;;;;;;5104203;28;20027;-41
2021/09/30 03:12:56;;;;;;;11.73;4.72;;;28.60;89.30;;;;;;5103979;28;20032;-40
2021/09/30 03:17:55;;;;;;;10.95;4.40;;;28.70;89.90;;;;;;5103795;28;20019;-42
2021/09/30 03:20:42;;;;;;;11.18;4.20;;;28.60;89.30;;;;;;5104355;28;20031;-43
2021/09/30 03:23:14;;;;;;;25.50;5.47;;;28.60;89.20;;;;;;5103733;28;20032;-42
2021/09/30 03:25:46;;;;;;;54.97;8.63;;;28.60;89.10;;;;;;5104377;28;20031;-41
2021/09/30 03:28:13;;;;;;;46.83;7.60;;;28.60;88.90;;;;;;5103687;28;20099;-43
2021/09/30 03:30:40;;;;;;;57.80;8.70;;;28.60;88.90;;;;;;5102796;28;20361;-44
2021/09/30 03:33:08;;;;;;;35.90;8.68;;;28.60;89.00;;;;;;5103903;28;20028;-43
2021/09/30 03:35:37;;;;;;;36.33;8.48;;;28.60;89.10;;;;;;5104080;28;20019;-43
2021/09/30 03:38:05;;;;;;;26.90;6.75;;;28.60;89.20;;;;;;5103695;28;20027;-42
2021/09/30 03:40:33;;;;;;;34.60;7.25;;;28.60;89.20;;;;;;5104236;28;20031;-41
2021/09/30 03:42:59;;;;;;;29.73;7.90;;;28.60;89.30;;;;;;5103468;28;20083;-40
2021/09/30 03:45:26;;;;;;;36.95;7.00;;;28.60;89.30;;;;;;5104108;28;20186;-42
2021/09/30 03:47:52;;;;;;;33.42;8.18;;;28.60;89.30;;;;;;5103580;28;20023;-45
2021/09/30 03:50:28;;;;;;;32.00;7.40;;;28.60;89.40;;;;;;5103387;28;20193;-48
2021/09/30 04:01:11;;;;;;;23.65;5.88;;;28.50;89.60;;;;;;5103424;28;20079;-52
2021/09/30 04:03:38;;;;;;;22.85;5.38;;;28.50;89.70;;;;;;5103972;28;20091;-44
2021/09/30 04:06:04;;;;;;;26.38;6.00;;;28.50;89.80;;;;;;5107199;28;20251;-43
2021/09/30 04:08:32;;;;;;;24.25;6.07;;;28.50;89.90;;;;;;5107204;28;20066;-43
2021/09/30 04:10:58;;;;;;;23.58;5.70;;;28.50;90.00;;;;;;5107129;28;20016;-43
2021/09/30 04:13:25;;;;;;;25.45;5.43;;;28.50;90.00;;;;;;5107004;28;20016;-52
2021/09/30 04:15:51;;;;;;;15.68;5.13;;;28.50;90.10;;;;;;5107086;28;20372;-45
2021/09/30 04:18:19;;;;;;;21.65;5.53;;;28.40;90.10;;;;;;5107148;28;20186;-50
2021/09/30 04:20:45;;;;;;;21.48;5.70;;;28.50;90.10;;;;;;5106982;28;20083;-52
2021/09/30 04:23:12;;;;;;;14.10;4.78;;;28.50;90.10;;;;;;5107275;28;20293;-50
2021/09/30 04:25:39;;;;;;;16.20;5.13;;;28.40;90.10;;;;;;5107435;28;20036;-53
2021/09/30 04:28:06;;;;;;;19.77;5.68;;;28.40;90.00;;;;;;5105789;28;20198;-52
2021/09/30 04:30:33;;;;;;;17.52;5.07;;;28.40;90.00;;;;;;5107213;28;20032;-49
2021/09/30 04:32:59;;;;;;;13.25;4.50;;;28.40;90.00;;;;;;5106872;28;20020;-49
2021/09/30 04:35:26;;;;;;;15.07;4.50;;;28.40;90.00;;;;;;5107211;28;20085;-45
2021/09/30 04:37:52;;;;;;;13.90;5.55;;;28.40;90.00;;;;;;5106577;28;20208;-48
2021/09/30 04:40:19;;;;;;;12.13;6.20;;;28.40;90.00;;;;;;5107139;28;20027;-48
2021/09/30 04:42:45;;;;;;;10.63;4.90;;;28.40;90.00;;;;;;5106657;28;20019;-41
2021/09/30 04:45:12;;;;;;;10.65;4.57;;;28.30;89.90;;;;;;5106805;28;20301;-42
2021/09/30 04:47:39;;;;;;;10.57;4.22;;;28.30;90.00;;;;;;5106551;28;20308;-43
2021/09/30 04:50:06;;;;;;;11.38;3.78;;;28.30;90.10;;;;;;5105376;28;20061;-43
2021/09/30 04:52:33;;;;;;;11.05;4.05;;;28.30;90.00;;;;;;5106259;28;20015;-40
2021/09/30 04:54:59;;;;;;;8.85;3.83;;;28.40;90.00;;;;;;5106762;28;20035;-40
2021/09/30 04:57:27;;;;;;;12.00;3.92;;;28.40;90.10;;;;;;5106775;28;20012;-43
2021/09/30 04:59:54;;;;;;;9.43;3.80;;;28.30;90.00;;;;;;5106074;28;20157;-42
2021/09/30 05:02:21;;;;;;;8.68;3.83;;;28.30;90.00;;;;;;5106240;28;20078;-40
2021/09/30 05:04:47;;;;;;;10.02;4.00;;;28.30;90.00;;;;;;5106480;28;20031;-40
2021/09/30 05:07:14;;;;;;;11.18;3.45;;;28.30;90.00;;;;;;5106069;28;20028;-40
2021/09/30 05:09:40;;;;;;;8.88;3.60;;;28.30;89.90;;;;;;5106309;28;20032;-44
2021/09/30 05:12:10;;;;;;;7.57;3.20;;;28.30;89.80;;;;;;5106228;28;20045;-42
2021/09/30 05:14:37;;;;;;;6.22;3.10;;;28.30;89.70;;;;;;5106105;28;20028;-44
2021/09/30 05:17:04;;;;;;;10.50;3.20;;;28.30;90.10;;;;;;5105593;28;20016;-51
2021/09/30 05:19:30;;;;;;;6.70;3.10;;;28.30;89.80;;;;;;5106119;28;20070;-47
2021/09/30 05:21:57;;;;;;;10.13;3.13;;;28.20;89.80;;;;;;5105767;28;20340;-48
2021/09/30 05:24:23;;;;;;;5.30;3.30;;;28.30;89.90;;;;;;5106157;28;20028;-52
2021/09/30 05:26:50;;;;;;;5.53;2.75;;;28.30;90.00;;;;;;5105808;28;20026;-51
2021/09/30 05:29:17;;;;;;;7.63;2.97;;;28.20;89.90;;;;;;5105733;28;20023;-51
2021/09/30 05:31:43;;;;;;;6.65;2.97;;;28.30;89.80;;;;;;5105682;28;20072;-49
2021/09/30 05:34:10;;;;;;;7.85;2.67;;;28.20;89.70;;;;;;5105831;28;20353;-51
2021/09/30 05:36:36;;;;;;;6.88;2.72;;;28.20;89.70;;;;;;5105480;28;20015;-50
2021/09/30 05:39:12;;;;;;;6.57;2.72;;;28.30;89.80;;;;;;5105690;28;20030;-53
2021/09/30 05:41:39;;;;;;;8.25;3.03;;;28.30;89.70;;;;;;5105496;28;20018;-44
2021/09/30 05:44:10;;;;;;;8.02;2.67;;;28.20;89.70;;;;;;5105440;28;20047;-43
2021/09/30 05:46:43;;;;;;;6.45;2.50;;;28.20;89.70;;;;;;5105444;28;20020;-43
2021/09/30 05:49:10;;;;;;;6.45;3.00;;;28.20;89.70;;;;;;5105302;28;20028;-45
2021/09/30 05:51:38;;;;;;;12.32;3.25;;;28.20;89.60;;;;;;5105331;28;20141;-45
2021/09/30 05:54:05;;;;;;;6.55;2.90;;;28.20;89.50;;;;;;5105423;28;20027;-43
2021/09/30 05:56:31;;;;;;;7.78;3.05;;;28.20;89.50;;;;;;5105118;28;20020;-46
2021/09/30 05:58:58;;;;;;;5.22;2.60;;;28.20;89.50;;;;;;5105107;28;20069;-45
2021/09/30 06:14:39;;;;;;;4.78;2.67;;;28.20;89.50;;;;;;5104976;28;20016;-43
2021/09/30 06:18:01;;;;;;;5.88;2.60;;;28.20;89.60;;;;;;5105115;28;20048;-43
2021/09/30 06:20:28;;;;;;;8.32;2.90;;;28.20;89.70;;;;;;5104637;28;20232;-46
2021/09/30 06:22:55;;;;;;;7.40;2.95;;;28.10;89.50;;;;;;5104613;28;20312;-47
2021/09/30 06:25:22;;;;;;;5.43;2.45;;;28.10;89.50;;;;;;5105120;28;20054;-42
2021/09/30 06:27:49;;;;;;;5.13;2.60;;;28.10;89.50;;;;;;5103805;28;20031;-43
2021/09/30 06:30:16;;;;;;;7.57;3.30;;;28.10;89.40;;;;;;5104832;28;20193;-44
2021/09/30 06:32:43;;;;;;;5.53;2.70;;;28.10;89.40;;;;;;5104533;28;20012;-45
2021/09/30 06:35:10;;;;;;;4.32;2.80;;;28.10;89.40;;;;;;5104956;28;20087;-46
2021/09/30 06:37:37;;;;;;;5.45;3.08;;;28.10;89.40;;;;;;5104355;28;20027;-43
2021/09/30 06:40:05;;;;;;;6.78;2.20;;;28.10;89.40;;;;;;5104851;28;20054;-43
2021/09/30 06:42:32;;;;;;;5.72;2.70;;;28.10;89.50;;;;;;5104406;28;20024;-44
2021/09/30 06:44:58;;;;;;;5.20;2.60;;;28.10;89.50;;;;;;5104555;28;20032;-50
2021/09/30 06:47:25;;;;;;;5.32;2.72;;;28.00;89.40;;;;;;5104358;28;20400;-46
2021/09/30 06:49:51;;;;;;;6.78;2.63;;;28.00;89.30;;;;;;5104639;28;20309;-44
2021/09/30 06:52:18;;;;;;;5.03;2.30;;;28.00;89.20;;;;;;5104275;28;20140;-44
2021/09/30 06:54:44;;;;;;;6.97;2.35;;;28.00;89.10;;;;;;5104741;28;20024;-46
2021/09/30 06:57:11;;;;;;;3.53;2.45;;;28.00;89.10;;;;;;5104522;28;20178;-43
2021/09/30 06:59:37;;;;;;;7.53;2.58;;;28.00;89.00;;;;;;5104135;28;20352;-46
2021/09/30 07:02:07;;;;;;;4.00;2.13;;;28.00;89.10;;;;;;5104018;28;20031;-45
2021/09/30 07:04:34;;;;;;;4.88;2.30;;;28.00;89.20;;;;;;5104182;28;20066;-42
2021/09/30 07:07:03;;;;;;;5.82;2.53;;;28.00;89.10;;;;;;5104054;28;20362;-47
2021/09/30 07:09:30;;;;;;;3.78;2.35;;;28.00;89.20;;;;;;5104304;28;20040;-47
2021/09/30 07:11:59;;;;;;;4.70;2.47;;;28.00;89.20;;;;;;5104018;28;20020;-45
2021/09/30 07:14:29;;;;;;;5.13;2.30;;;27.90;89.20;;;;;;5104121;28;20024;-45
2021/09/30 07:16:56;;;;;;;3.28;2.50;;;27.90;89.20;;;;;;5103981;28;20016;-43
2021/09/30 07:19:23;;;;;;;5.35;2.20;;;27.90;89.10;;;;;;5104182;28;20200;-46
2021/09/30 07:21:50;;;;;;;6.63;2.50;;;27.90;89.20;;;;;;5104082;28;20277;-45
2021/09/30 07:24:17;;;;;;;5.78;2.55;;;27.90;89.20;;;;;;5104124;28;20055;-44
2021/09/30 07:26:45;;;;;;;3.72;2.30;;;27.90;89.20;;;;;;5103850;28;20016;-48
2021/09/30 07:29:12;;;;;;;4.30;2.30;;;27.90;89.30;;;;;;5103738;28;20126;-50
2021/09/30 07:31:39;;;;;;;4.10;2.40;;;27.90;89.20;;;;;;5103912;28;20204;-47
2021/09/30 07:34:11;;;;;;;6.30;2.47;;;27.90;89.30;;;;;;5103979;28;20024;-49
2021/09/30 07:36:42;;;;;;;3.78;2.38;;;27.90;89.30;;;;;;5103680;28;20077;-42
2021/09/30 07:39:10;;;;;;;3.78;2.03;;;27.90;89.40;;;;;;5105349;28;20028;-47
2021/09/30 07:41:37;;;;;;;8.43;2.50;;;27.90;89.40;;;;;;5107835;28;20012;-43
2021/09/30 07:44:05;;;;;;;4.47;2.40;;;27.90;89.40;;;;;;5107724;28;20024;-43
2021/09/30 07:46:33;;;;;;;7.65;2.40;;;27.90;89.40;;;;;;5107693;28;20023;-43
2021/09/30 07:49:00;;;;;;;2.90;2.17;;;27.90;89.30;;;;;;5107683;28;20024;-44
2021/09/30 07:51:27;;;;;;;8.13;2.30;;;27.80;89.30;;;;;;5107432;28;20036;-40
2021/09/30 07:53:54;;;;;;;4.82;2.30;;;27.90;89.30;;;;;;5107750;28;20020;-44
2021/09/30 07:56:20;;;;;;;3.53;2.50;;;27.90;89.40;;;;;;5107670;28;20300;-44
2021/09/30 07:58:47;;;;;;;3.55;2.30;;;27.80;89.30;;;;;;5107410;28;20024;-48
2021/09/30 08:01:13;;;;;;;5.85;2.42;;;27.80;89.80;;;;;;5107346;28;20040;-47
2021/09/30 08:03:41;;;;;;;6.97;2.38;;;27.80;89.30;;;;;;5107475;28;20030;-46
2021/09/30 08:06:07;;;;;;;6.28;2.40;;;27.80;89.40;;;;;;5107272;28;20069;-50
2021/09/30 08:08:34;;;;;;;2.97;2.20;;;27.80;89.30;;;;;;5107276;28;20023;-51
2021/09/30 08:11:01;;;;;;;4.10;2.58;;;27.80;89.40;;;;;;5107190;28;20028;-51
2021/09/30 08:13:30;;;;;;;4.28;2.50;;;27.80;89.40;;;;;;5107058;28;20024;-52
2021/09/30 08:15:58;;;;;;;5.05;2.20;;;27.70;89.30;;;;;;5107197;28;20077;-50
2021/09/30 08:18:24;;;;;;;4.15;2.20;;;27.80;89.40;;;;;;5107053;28;20042;-51
2021/09/30 08:20:51;;;;;;;5.40;2.55;;;27.70;89.30;;;;;;5106998;28;20031;-50
2021/09/30 08:23:18;;;;;;;4.05;2.30;;;27.80;89.40;;;;;;5107093;28;20016;-51
2021/09/30 08:25:45;;;;;;;5.43;2.63;;;27.70;89.30;;;;;;5107005;28;20152;-50
2021/09/30 08:28:12;;;;;;;6.43;2.40;;;27.80;89.30;;;;;;5106862;28;20020;-51
2021/09/30 08:30:40;;;;;;;4.18;2.30;;;27.80;89.20;;;;;;5107376;28;20091;-51
2021/09/30 08:33:09;;;;;;;5.13;2.15;;;27.70;89.10;;;;;;5106884;28;20016;-52
2021/09/30 08:35:37;;;;;;;6.13;2.40;;;27.70;89.00;;;;;;5107183;28;20383;-51
2021/09/30 08:38:04;;;;;;;5.13;2.42;;;27.70;89.00;;;;;;5106879;28;20039;-46
2021/09/30 08:40:32;;;;;;;3.70;2.03;;;27.70;89.00;;;;;;5107257;28;20304;-43
2021/09/30 08:42:59;;;;;;;6.10;2.05;;;27.70;89.00;;;;;;5106852;28;20066;-42
2021/09/30 08:45:26;;;;;;;4.22;2.30;;;27.70;88.90;;;;;;5107085;28;20077;-43
2021/09/30 08:48:00;;;;;;;4.57;2.35;;;27.70;88.80;;;;;;5106662;28;20336;-43
2021/09/30 08:50:29;;;;;;;6.78;2.10;;;27.70;88.80;;;;;;5105289;28;20082;-41
2021/09/30 08:52:56;;;;;;;4.80;2.30;;;27.80;88.90;;;;;;5106837;28;20012;-43
2021/09/30 08:55:23;;;;;;;4.43;2.25;;;27.70;88.80;;;;;;5106988;28;20095;-47
2021/09/30 08:57:51;;;;;;;4.32;2.03;;;27.70;88.70;;;;;;5106338;28;20294;-44
2021/09/30 09:00:19;;;;;;;5.75;2.38;;;27.70;88.80;;;;;;5106282;28;20370;-42
2021/09/30 09:02:52;;;;;;;4.20;2.30;;;27.70;88.80;;;;;;5106313;28;20125;-42
2021/09/30 09:05:20;;;;;;;4.93;2.25;;;27.70;88.70;;;;;;5106591;28;20182;-42
2021/09/30 09:08:02;;;;;;;3.90;2.20;;;27.70;88.70;;;;;;5106210;28;20016;-47
2021/09/30 09:10:39;;;;;;;5.07;2.15;;;27.70;88.70;;;;;;5106427;28;20251;-49
2021/09/30 09:13:16;;;;;;;3.63;2.00;;;27.70;88.70;;;;;;5106135;28;20320;-50
2021/09/30 09:15:59;;;;;;;3.72;2.38;;;27.70;88.70;;;;;;5106433;28;20100;-53
2021/09/30 09:18:32;;;;;;;6.97;2.30;;;27.70;88.60;;;;;;5105937;28;20031;-53
2021/09/30 09:21:15;;;;;;;7.32;2.50;;;27.70;88.70;;;;;;5105803;28;20032;-52
2021/09/30 09:24:01;;;;;;;2.55;2.10;;;27.70;88.70;;;;;;5105887;28;20031;-53
2021/09/30 09:26:39;;;;;;;3.88;2.30;;;27.70;88.70;;;;;;5105833;28;20028;-54
2021/09/30 09:29:16;;;;;;;4.50;2.50;;;27.70;88.70;;;;;;5105837;28;20028;-53
2021/09/30 09:31:50;;;;;;;5.68;2.00;;;27.70;89.20;;;;;;5105709;28;20035;-54
2021/09/30 09:34:33;;;;;;;3.28;2.10;;;27.60;88.60;;;;;;5105617;28;20185;-53
2021/09/30 09:37:19;;;;;;;3.85;2.25;;;27.60;89.10;;;;;;5105646;28;20020;-53
2021/09/30 09:39:46;;;;;;;3.10;2.15;;;27.60;88.70;;;;;;5105741;28;20028;-51
2021/09/30 09:42:15;;;;;;;5.05;2.50;;;27.60;88.70;;;;;;5105601;28;20066;-53
2021/09/30 09:45:01;;;;;;;4.25;2.28;;;27.60;88.70;;;;;;5105733;28;20059;-54
2021/09/30 09:47:36;;;;;;;5.60;2.38;;;27.60;88.70;;;;;;5105537;28;20027;-52
2021/09/30 09:50:22;;;;;;;4.97;2.20;;;27.60;88.70;;;;;;5105599;28;20035;-44
2021/09/30 09:52:49;;;;;;;3.60;2.33;;;27.60;88.70;;;;;;5105331;28;20023;-48
2021/09/30 09:55:19;;;;;;;4.28;2.35;;;27.60;88.70;;;;;;5105685;28;20022;-43
2021/09/30 09:58:07;;;;;;;5.63;2.58;;;27.60;88.70;;;;;;5105112;28;20024;-47
2021/09/30 10:00:40;;;;;;;3.53;2.38;;;27.50;88.60;;;;;;5105167;28;20059;-44
2021/09/30 10:03:17;;;;;;;6.88;2.45;;;27.50;88.60;;;;;;5105134;28;20019;-48
2021/09/30 10:05:45;;;;;;;4.43;2.53;;;27.50;88.80;;;;;;5104993;28;20098;-47
2021/09/30 10:08:14;;;;;;;4.15;2.35;;;27.50;88.70;;;;;;5104838;28;20242;-47
2021/09/30 10:10:42;;;;;;;6.13;2.47;;;27.60;88.80;;;;;;5105395;28;20032;-45
2021/09/30 10:13:09;;;;;;;6.05;2.42;;;27.50;88.70;;;;;;5104850;28;20090;-51
2021/09/30 10:15:37;;;;;;;4.10;2.45;;;27.60;88.70;;;;;;5105266;28;20035;-50
2021/09/30 10:18:06;;;;;;;9.65;2.95;;;27.50;88.70;;;;;;5104933;28;20131;-46
2021/09/30 10:20:33;;;;;;;6.88;2.75;;;27.50;88.70;;;;;;5105249;28;20028;-48
2021/09/30 10:23:02;;;;;;;5.53;2.60;;;27.60;88.70;;;;;;5104629;28;20020;-42
2021/09/30 10:25:38;;;;;;;6.65;2.72;;;27.50;88.70;;;;;;5105065;28;20069;-46
2021/09/30 10:28:07;;;;;;;4.93;2.72;;;27.50;88.70;;;;;;5103420;28;20039;-49
2021/09/30 10:30:45;;;;;;;7.10;3.53;;;27.50;88.70;;;;;;5104956;28;20059;-40
2021/09/30 10:33:15;;;;;;;6.85;2.95;;;27.50;88.70;;;;;;5104539;28;20204;-48
2021/09/30 10:35:45;;;;;;;6.03;3.10;;;27.50;88.70;;;;;;5104920;28;20028;-48
2021/09/30 10:38:20;;;;;;;5.57;2.60;;;27.50;88.70;;;;;;5104776;28;20185;-48
2021/09/30 10:41:06;;;;;;;6.63;2.90;;;27.40;88.70;;;;;;5104325;28;20030;-46
2021/09/30 10:43:36;;;;;;;5.30;2.75;;;27.40;88.70;;;;;;5104404;28;20023;-45
2021/09/30 10:46:03;;;;;;;4.13;2.63;;;27.40;88.80;;;;;;5104235;28;20020;-50
2021/09/30 10:48:34;;;;;;;5.88;2.80;;;27.50;88.80;;;;;;5104303;28;20020;-48
2021/09/30 10:51:06;;;;;;;8.35;3.10;;;27.40;88.80;;;;;;5104262;28;20083;-49
2021/09/30 10:53:48;;;;;;;5.55;3.33;;;27.40;88.80;;;;;;5102947;28;20239;-47
2021/09/30 10:56:30;;;;;;;6.70;2.92;;;27.40;88.80;;;;;;5104345;28;20311;-46
2021/09/30 10:59:02;;;;;;;4.55;2.90;;;27.40;88.90;;;;;;5104103;28;20099;-45
2021/09/30 11:01:29;;;;;;;6.70;3.15;;;27.40;89.00;;;;;;5104200;28;20068;-44
2021/09/30 11:04:05;;;;;;;7.88;3.03;;;27.40;88.90;;;;;;5104033;28;20414;-44
2021/09/30 11:06:32;;;;;;;6.50;3.45;;;27.40;89.00;;;;;;5104118;28;20028;-48
2021/09/30 11:09:22;;;;;;;6.97;3.38;;;27.40;89.10;;;;;;5104156;28;20062;-44
2021/09/30 11:11:52;;;;;;;6.13;3.40;;;27.40;89.10;;;;;;5104068;28;20316;-43
2021/09/30 11:14:22;;;;;;;6.15;3.35;;;27.40;89.10;;;;;;5103685;28;20043;-43
2021/09/30 11:16:56;;;;;;;9.98;4.20;;;27.40;89.20;;;;;;5103885;28;20030;-46
2021/09/30 11:19:27;;;;;;;9.75;4.38;;;27.40;89.20;;;;;;5104121;28;20056;-40
2021/09/30 11:22:01;;;;;;;12.55;5.70;;;27.40;89.30;;;;;;5103878;28;20208;-41
2021/09/30 11:24:34;;;;;;;8.55;5.80;;;27.40;89.30;;;;;;5104047;28;20024;-41
2021/09/30 11:27:06;;;;;;;12.57;7.20;;;27.40;89.30;;;;;;5103951;28;20016;-46
2021/09/30 11:29:32;;;;;;;10.93;7.90;;;27.30;89.30;;;;;;5103954;28;20311;-42
2021/09/30 11:31:59;;;;;;;11.35;7.85;;;27.40;89.40;;;;;;5103845;28;20020;-42
2021/09/30 11:35:00;;;;;;;14.18;7.93;;;27.40;89.50;;;;;;5103770;28;20059;-43
2021/09/30 11:37:36;;;;;;;8.88;7.57;;;27.40;89.50;;;;;;5102677;28;20028;-41
2021/09/30 11:40:08;;;;;;;9.23;6.95;;;27.40;89.40;;;;;;5104238;28;20024;-44
2021/09/30 11:42:48;;;;;;;12.43;6.65;;;27.40;89.40;;;;;;5103727;28;20020;-42
2021/09/30 11:45:19;;;;;;;11.10;6.15;;;27.40;89.40;;;;;;5104102;28;20024;-41
2021/09/30 11:47:46;;;;;;;13.52;6.47;;;27.40;89.30;;;;;;5102496;28;20047;-41
2021/09/30 11:50:23;;;;;;;11.77;5.65;;;27.40;89.30;;;;;;5103744;28;20220;-41
2021/09/30 11:53:06;;;;;;;10.02;6.15;;;27.50;89.40;;;;;;5103605;28;20012;-42
2021/09/30 11:55:40;;;;;;;10.40;5.50;;;27.50;89.30;;;;;;5103288;28;20052;-42
2021/09/30 11:58:08;;;;;;;9.93;5.47;;;27.50;89.30;;;;;;5103561;28;20020;-42
2021/09/30 12:00:35;;;;;;;11.32;5.20;;;27.50;89.20;;;;;;5103538;28;20060;-42
2021/09/30 12:03:05;;;;;;;12.18;5.45;;;27.50;89.10;;;;;;5103426;28;20096;-41
2021/09/30 12:05:37;;;;;;;12.65;5.65;;;27.60;89.20;;;;;;5103458;28;20031;-41
2021/09/30 12:08:06;;;;;;;14.07;5.20;;;27.60;89.20;;;;;;5103469;28;20020;-42
2021/09/30 12:10:37;;;;;;;9.93;5.00;;;27.60;89.10;;;;;;5103905;28;20028;-43
2021/09/30 12:13:19;;;;;;;9.05;5.03;;;27.60;88.90;;;;;;5103457;28;20015;-42
2021/09/30 12:15:47;;;;;;;11.50;4.57;;;27.70;88.90;;;;;;5103743;28;20032;-40
2021/09/30 12:18:23;;;;;;;10.60;4.55;;;27.70;88.80;;;;;;5103424;28;20255;-41
2021/09/30 12:20:57;;;;;;;7.72;4.97;;;27.70;88.60;;;;;;5103217;28;20027;-44
2021/09/30 12:23:25;;;;;;;7.93;4.70;;;27.70;88.70;;;;;;5103231;28;20020;-45
2021/09/30 12:25:53;;;;;;;8.10;4.43;;;27.80;88.70;;;;;;5104071;28;20375;-45
2021/09/30 12:28:20;;;;;;;10.05;4.25;;;27.80;88.50;;;;;;5105532;28;20028;-44
2021/09/30 12:30:47;;;;;;;7.63;4.43;;;27.80;88.50;;;;;;5106754;28;20016;-43
2021/09/30 12:33:13;;;;;;;10.65;4.28;;;27.80;88.50;;;;;;5107044;28;20024;-42
2021/09/30 12:35:42;;;;;;;8.50;4.20;;;27.80;88.50;;;;;;5107025;28;20020;-43
2021/09/30 12:38:16;;;;;;;11.70;4.15;;;27.90;88.70;;;;;;5106891;28;20019;-44
2021/09/30 12:40:49;;;;;;;5.78;3.65;;;27.90;88.80;;;;;;5107051;28;20055;-45
2021/09/30 12:43:19;;;;;;;10.68;4.03;;;27.90;88.70;;;;;;5106775;28;20335;-44
2021/09/30 12:46:02;;;;;;;6.82;3.63;;;27.90;88.70;;;;;;5106682;28;20102;-48
2021/09/30 12:48:30;;;;;;;8.07;3.45;;;27.90;88.80;;;;;;5106454;28;20019;-48
2021/09/30 12:51:05;;;;;;;9.30;3.38;;;28.00;88.70;;;;;;5106507;28;20028;-45
2021/09/30 12:53:50;;;;;;;6.78;3.47;;;28.00;88.70;;;;;;5106349;28;20066;-48
2021/09/30 12:56:27;;;;;;;8.82;3.20;;;28.00;88.70;;;;;;5105393;28;20264;-52
2021/09/30 12:58:54;;;;;;;8.07;3.63;;;28.00;88.70;;;;;;5106367;28;20296;-49
2021/09/30 13:01:33;;;;;;;8.38;3.42;;;28.00;88.70;;;;;;5106274;28;20059;-46
2021/09/30 13:04:24;;;;;;;6.40;3.50;;;28.00;88.60;;;;;;5106223;28;20024;-49
2021/09/30 13:07:06;;;;;;;4.32;3.38;;;28.10;88.70;;;;;;5106235;28;20015;-50
2021/09/30 13:09:38;;;;;;;6.23;3.57;;;28.00;88.60;;;;;;5106308;28;20320;-44
2021/09/30 13:12:10;;;;;;;;;;;28.10;88.70;;;;;;5106664;28;20028;-44
2021/09/30 13:14:53;;;;;;;6.65;2.92;;;28.10;88.60;;;;;;5105906;28;19904;-44
2021/09/30 13:17:30;;;;;;;9.43;3.03;;;28.10;88.70;;;;;;5106028;28;20024;-45
2021/09/30 13:20:02;;;;;;;7.35;3.25;;;28.10;88.60;;;;;;5106379;28;20023;-42
2021/09/30 13:22:36;;;;;;;7.85;3.00;;;28.10;88.60;;;;;;5106025;28;20019;-47
2021/09/30 13:25:15;;;;;;;7.03;2.90;;;28.10;88.50;;;;;;5106081;28;20024;-46
2021/09/30 13:27:43;;;;;;;7.70;3.10;;;28.20;88.50;;;;;;5105838;28;20020;-52
2021/09/30 13:30:17;;;;;;;4.63;2.88;;;28.20;88.50;;;;;;5106039;28;20087;-49
2021/09/30 13:32:45;;;;;;;6.82;2.83;;;28.20;88.40;;;;;;5105744;28;20027;-48
2021/09/30 13:35:14;;;;;;;5.30;2.55;;;28.20;88.30;;;;;;5106107;28;20024;-44
2021/09/30 13:37:41;;;;;;;5.47;2.75;;;28.20;88.30;;;;;;5105089;28;20087;-42
2021/09/30 13:40:09;;;;;;;7.88;3.25;;;28.20;88.20;;;;;;5106030;28;20099;-44
2021/09/30 13:42:37;;;;;;;5.78;2.90;;;28.30;88.40;;;;;;5105588;28;20031;-42
2021/09/30 13:45:10;;;;;;;3.42;2.78;;;28.30;88.30;;;;;;5104374;28;20051;-43
2021/09/30 13:47:37;;;;;;;8.95;2.97;;;28.30;88.30;;;;;;5105447;28;20069;-44
2021/09/30 13:50:06;;;;;;;7.45;2.78;;;28.30;88.40;;;;;;5105653;28;20028;-48
2021/09/30 13:52:33;;;;;;;7.15;3.65;;;28.30;88.40;;;;;;5105175;28;20121;-44
2021/09/30 13:54:59;;;;;;;5.35;2.95;;;28.30;88.40;;;;;;5105755;28;20069;-49
2021/09/30 13:57:26;;;;;;;5.50;3.15;;;28.40;88.50;;;;;;5105317;28;20255;-47
2021/09/30 13:59:52;;;;;;;5.38;3.30;;;28.40;88.50;;;;;;5105023;28;20344;-51
2021/09/30 14:02:19;;;;;;;6.50;3.22;;;28.40;88.60;;;;;;5105253;28;20307;-51
2021/09/30 14:04:45;;;;;;;8.18;3.63;;;28.40;88.60;;;;;;5105368;28;20241;-52
2021/09/30 14:07:12;;;;;;;10.05;3.42;;;28.40;88.70;;;;;;5104915;28;20016;-52
2021/09/30 14:09:39;;;;;;;6.55;3.28;;;28.40;88.70;;;;;;5105210;28;20031;-55
2021/09/30 14:12:06;;;;;;;11.00;3.35;;;28.40;88.70;;;;;;5105018;28;20027;-53
2021/09/30 14:14:33;;;;;;;5.43;3.63;;;28.40;88.70;;;;;;5105014;28;20301;-52
2021/09/30 14:17:00;;;;;;;9.20;3.78;;;28.40;88.70;;;;;;5105058;28;20030;-52
2021/09/30 14:19:28;;;;;;;8.02;3.70;;;28.50;88.80;;;;;;5105111;28;20020;-51
2021/09/30 14:21:59;;;;;;;6.38;3.53;;;28.50;88.80;;;;;;5104766;28;20046;-53
2021/09/30 14:24:30;;;;;;;10.02;3.63;;;28.50;88.90;;;;;;5103841;28;20066;-53
2021/09/30 14:26:57;;;;;;;8.37;3.67;;;28.50;88.90;;;;;;5104783;28;20083;-54
2021/09/30 14:29:24;;;;;;;8.20;3.63;;;28.50;88.90;;;;;;5104794;28;20051;-53
2021/09/30 14:31:51;;;;;;;5.65;3.50;;;28.50;88.80;;;;;;5104671;28;20016;-53
2021/09/30 14:34:21;;;;;;;7.78;3.35;;;28.60;88.80;;;;;;5104711;28;20024;-53
2021/09/30 14:36:47;;;;;;;7.45;3.50;;;28.60;88.80;;;;;;5104554;28;20027;-53
2021/09/30 14:39:14;;;;;;;4.70;2.95;;;28.60;88.70;;;;;;5104636;28;20194;-53
2021/09/30 14:41:41;;;;;;;6.60;3.00;;;28.60;89.20;;;;;;5104410;28;20016;-51
2021/09/30 14:44:09;;;;;;;5.47;3.03;;;28.60;88.60;;;;;;5104496;28;20031;-45
2021/09/30 14:46:36;;;;;;;6.68;2.90;;;28.60;88.50;;;;;;5104377;28;20254;-45
2021/09/30 14:49:02;;;;;;;5.45;3.25;;;28.60;88.50;;;;;;5103696;28;20051;-51
2021/09/30 14:51:29;;;;;;;6.30;3.25;;;28.70;88.50;;;;;;5104202;28;20324;-44
2021/09/30 14:53:55;;;;;;;5.55;3.10;;;28.70;88.40;;;;;;5104386;28;20294;-44
2021/09/30 14:56:22;;;;;;;6.70;3.30;;;28.70;88.40;;;;;;5104317;28;20307;-44
2021/09/30 14:58:48;;;;;;;8.15;3.53;;;28.70;88.30;;;;;;5104138;28;20239;-44
2021/09/30 15:01:15;;;;;;;6.95;3.13;;;28.70;88.20;;;;;;5104113;28;20043;-44
2021/09/30 15:03:42;;;;;;;7.05;3.17;;;28.80;88.20;;;;;;5104214;28;20035;-41
2021/09/30 15:06:12;;;;;;;4.28;2.83;;;28.80;88.10;;;;;;5104008;28;20314;-39
2021/09/30 15:08:39;;;;;;;4.85;2.65;;;28.80;87.90;;;;;;5104156;28;20351;-42
2021/09/30 15:11:07;;;;;;;6.57;2.95;;;28.80;87.90;;;;;;5104024;28;20077;-43
2021/09/30 15:13:33;;;;;;;6.65;3.05;;;28.80;87.80;;;;;;5102763;28;20035;-45
2021/09/30 15:16:03;;;;;;;5.13;2.95;;;28.90;87.70;;;;;;5104083;28;20024;-42
2021/09/30 15:19:36;;;;;;;5.57;3.20;;;28.80;88.00;;;;;;5103935;28;20016;-44
2021/09/30 15:21:25;;;;;;;5.57;2.78;;;28.90;87.50;;;;;;5103479;28;20036;-45
2021/09/30 15:23:56;;;;;;;6.75;2.92;;;28.90;87.50;;;;;;5103917;28;20016;-45
2021/09/30 15:26:24;;;;;;;4.60;2.88;;;28.90;87.50;;;;;;5104013;28;20212;-45
2021/09/30 15:28:53;;;;;;;5.75;3.33;;;28.90;87.50;;;;;;5104013;28;20082;-45
2021/09/30 15:31:20;;;;;;;3.58;2.50;;;29.00;87.60;;;;;;5102629;28;20219;-43
2021/09/30 15:33:50;;;;;;;5.68;3.13;;;29.00;87.60;;;;;;5103882;28;20087;-44
2021/09/30 15:36:23;;;;;;;3.90;3.17;;;29.00;87.50;;;;;;5103861;28;20020;-44
2021/09/30 15:38:51;;;;;;;5.07;2.47;;;29.00;87.30;;;;;;5103735;28;20023;-45
2021/09/30 15:41:18;;;;;;;6.22;2.80;;;29.00;87.30;;;;;;5103933;28;20167;-45
2021/09/30 15:43:45;;;;;;;5.45;2.65;;;29.10;87.20;;;;;;5103973;28;20023;-46
2021/09/30 15:46:12;;;;;;;5.03;2.83;;;29.10;87.10;;;;;;5103636;28;20020;-45
2021/09/30 15:48:38;;;;;;;4.32;2.50;;;29.10;87.10;;;;;;5103717;28;20050;-44
2021/09/30 15:51:05;;;;;;;3.25;2.58;;;29.10;86.80;;;;;;5103822;28;20019;-47
2021/09/30 15:53:32;;;;;;;4.85;2.78;;;29.10;86.60;;;;;;5103536;28;20211;-47